sensor_id;sensor_type;location;lat;lon;timestamp;P1;durP1;ratioP1;P2;durP2;ratioP2
10465;SDS011;5280;42.600;23.556;2022-07-23T00:01:20;4.83;;;3.70;;
10465;SDS011;5280;42.600;23.556;2022-07-23T00:03:46;8.13;;;4.10;;
10465;SDS011;5280;42.600;23.556;2022-07-23T00:06:13;3.90;;;3.60;;
10465;SDS011;5280;42.600;23.556;2022-07-23T00:08:42;4.10;;;3.70;;
10465;SDS011;5280;42.600;23.556;2022-07-23T00:11:09;3.80;;;3.43;;
10465;SDS011;5280;42.600;23.556;2022-07-23T00:13:36;4.50;;;3.90;;
10465;SDS011;5280;42.600;23.556;2022-07-23T00:16:03;4.40;;;4.00;;
10465;SDS011;5280;42.600;23.556;2022-07-23T00:18:31;5.67;;;3.80;;
10465;SDS011;5280;42.600;23.556;2022-07-23T00:20:57;4.77;;;3.70;;
10465;SDS011;5280;42.600;23.556;2022-07-23T00:23:24;6.90;;;3.93;;
10465;SDS011;5280;42.600;23.556;2022-07-23T00:25:54;4.83;;;4.00;;
10465;SDS011;5280;42.600;23.556;2022-07-23T00:28:21;4.00;;;3.60;;
10465;SDS011;5280;42.600;23.556;2022-07-23T00:30:48;3.90;;;3.50;;
10465;SDS011;5280;42.600;23.556;2022-07-23T00:33:15;6.90;;;3.60;;
10465;SDS011;5280;42.600;23.556;2022-07-23T00:35:42;6.50;;;3.83;;
10465;SDS011;5280;42.600;23.556;2022-07-23T00:38:09;4.00;;;3.47;;
10465;SDS011;5280;42.600;23.556;2022-07-23T00:40:37;4.30;;;3.90;;
10465;SDS011;5280;42.600;23.556;2022-07-23T00:43:08;3.90;;;3.40;;
10465;SDS011;5280;42.600;23.556;2022-07-23T00:45:35;4.47;;;3.97;;
10465;SDS011;5280;42.600;23.556;2022-07-23T00:48:02;6.63;;;3.90;;
10465;SDS011;5280;42.600;23.556;2022-07-23T00:50:29;4.30;;;3.90;;
10465;SDS011;5280;42.600;23.556;2022-07-23T00:52:56;5.03;;;3.40;;
10465;SDS011;5280;42.600;23.556;2022-07-23T00:55:23;5.03;;;3.80;;
10465;SDS011;5280;42.600;23.556;2022-07-23T00:57:51;4.53;;;3.93;;
10465;SDS011;5280;42.600;23.556;2022-07-23T01:00:21;4.13;;;3.73;;
10465;SDS011;5280;42.600;23.556;2022-07-23T01:02:48;4.30;;;3.90;;
10465;SDS011;5280;42.600;23.556;2022-07-23T01:05:15;3.80;;;3.40;;
10465;SDS011;5280;42.600;23.556;2022-07-23T01:07:47;7.50;;;4.20;;
10465;SDS011;5280;42.600;23.556;2022-07-23T01:10:14;4.30;;;3.47;;
10465;SDS011;5280;42.600;23.556;2022-07-23T01:12:58;4.00;;;3.70;;
10465;SDS011;5280;42.600;23.556;2022-07-23T01:15:26;5.97;;;3.80;;
10465;SDS011;5280;42.600;23.556;2022-07-23T01:17:53;5.53;;;3.77;;
10465;SDS011;5280;42.600;23.556;2022-07-23T01:20:20;5.13;;;3.77;;
10465;SDS011;5280;42.600;23.556;2022-07-23T01:22:49;6.03;;;3.87;;
10465;SDS011;5280;42.600;23.556;2022-07-23T01:25:16;4.80;;;3.70;;
10465;SDS011;5280;42.600;23.556;2022-07-23T01:27:43;4.70;;;3.87;;
10465;SDS011;5280;42.600;23.556;2022-07-23T01:30:11;6.03;;;4.10;;
10465;SDS011;5280;42.600;23.556;2022-07-23T01:32:38;4.03;;;3.63;;
10465;SDS011;5280;42.600;23.556;2022-07-23T01:35:06;4.97;;;3.63;;
10465;SDS011;5280;42.600;23.556;2022-07-23T01:37:34;4.33;;;3.70;;
10465;SDS011;5280;42.600;23.556;2022-07-23T01:40:02;4.27;;;3.97;;
10465;SDS011;5280;42.600;23.556;2022-07-23T01:42:30;3.97;;;3.53;;
10465;SDS011;5280;42.600;23.556;2022-07-23T01:44:57;4.00;;;3.60;;
10465;SDS011;5280;42.600;23.556;2022-07-23T01:47:24;4.37;;;3.50;;
10465;SDS011;5280;42.600;23.556;2022-07-23T01:49:52;4.63;;;3.60;;
10465;SDS011;5280;42.600;23.556;2022-07-23T01:52:19;4.70;;;3.60;;
10465;SDS011;5280;42.600;23.556;2022-07-23T01:54:46;6.80;;;3.73;;
10465;SDS011;5280;42.600;23.556;2022-07-23T01:57:14;4.67;;;3.77;;
10465;SDS011;5280;42.600;23.556;2022-07-23T01:59:41;4.07;;;3.27;;
10465;SDS011;5280;42.600;23.556;2022-07-23T02:02:08;3.57;;;3.27;;
10465;SDS011;5280;42.600;23.556;2022-07-23T02:04:35;4.50;;;3.93;;
10465;SDS011;5280;42.600;23.556;2022-07-23T02:07:02;6.10;;;3.70;;
10465;SDS011;5280;42.600;23.556;2022-07-23T02:09:29;5.10;;;3.60;;
10465;SDS011;5280;42.600;23.556;2022-07-23T02:11:56;5.33;;;3.53;;
10465;SDS011;5280;42.600;23.556;2022-07-23T02:14:25;4.50;;;3.47;;
10465;SDS011;5280;42.600;23.556;2022-07-23T02:16:52;4.90;;;3.53;;
10465;SDS011;5280;42.600;23.556;2022-07-23T02:19:19;4.53;;;3.47;;
10465;SDS011;5280;42.600;23.556;2022-07-23T02:21:46;5.47;;;4.00;;
10465;SDS011;5280;42.600;23.556;2022-07-23T02:24:12;5.30;;;3.13;;
10465;SDS011;5280;42.600;23.556;2022-07-23T02:26:39;4.97;;;4.13;;
10465;SDS011;5280;42.600;23.556;2022-07-23T02:29:06;5.33;;;3.40;;
10465;SDS011;5280;42.600;23.556;2022-07-23T02:31:35;5.23;;;3.10;;
10465;SDS011;5280;42.600;23.556;2022-07-23T02:34:05;3.50;;;3.20;;
10465;SDS011;5280;42.600;23.556;2022-07-23T02:36:32;4.43;;;3.20;;
10465;SDS011;5280;42.600;23.556;2022-07-23T02:38:59;6.40;;;3.80;;
10465;SDS011;5280;42.600;23.556;2022-07-23T02:41:25;3.97;;;3.67;;
10465;SDS011;5280;42.600;23.556;2022-07-23T02:43:52;5.20;;;3.80;;
10465;SDS011;5280;42.600;23.556;2022-07-23T02:46:19;6.57;;;3.70;;
10465;SDS011;5280;42.600;23.556;2022-07-23T02:48:48;4.87;;;3.50;;
10465;SDS011;5280;42.600;23.556;2022-07-23T02:51:14;5.13;;;3.43;;
10465;SDS011;5280;42.600;23.556;2022-07-23T02:53:41;7.50;;;3.63;;
10465;SDS011;5280;42.600;23.556;2022-07-23T02:56:09;4.00;;;3.53;;
10465;SDS011;5280;42.600;23.556;2022-07-23T02:58:35;6.80;;;3.70;;
10465;SDS011;5280;42.600;23.556;2022-07-23T03:01:05;5.70;;;3.60;;
10465;SDS011;5280;42.600;23.556;2022-07-23T03:03:32;4.60;;;3.90;;
10465;SDS011;5280;42.600;23.556;2022-07-23T03:06:00;3.87;;;3.57;;
10465;SDS011;5280;42.600;23.556;2022-07-23T03:08:27;4.30;;;3.90;;
10465;SDS011;5280;42.600;23.556;2022-07-23T03:10:54;5.60;;;3.97;;
10465;SDS011;5280;42.600;23.556;2022-07-23T03:13:21;6.90;;;3.73;;
10465;SDS011;5280;42.600;23.556;2022-07-23T03:15:48;4.40;;;4.00;;
10465;SDS011;5280;42.600;23.556;2022-07-23T03:18:15;3.80;;;3.50;;
10465;SDS011;5280;42.600;23.556;2022-07-23T03:20:42;32.03;;;7.10;;
10465;SDS011;5280;42.600;23.556;2022-07-23T03:23:10;23.07;;;5.03;;
10465;SDS011;5280;42.600;23.556;2022-07-23T03:25:37;14.87;;;4.43;;
10465;SDS011;5280;42.600;23.556;2022-07-23T03:28:04;5.10;;;3.50;;
10465;SDS011;5280;42.600;23.556;2022-07-23T03:30:31;4.23;;;3.63;;
10465;SDS011;5280;42.600;23.556;2022-07-23T03:32:57;4.30;;;3.47;;
10465;SDS011;5280;42.600;23.556;2022-07-23T03:35:24;7.93;;;3.83;;
10465;SDS011;5280;42.600;23.556;2022-07-23T03:37:51;10.23;;;4.30;;
10465;SDS011;5280;42.600;23.556;2022-07-23T03:40:20;11.30;;;4.80;;
10465;SDS011;5280;42.600;23.556;2022-07-23T03:42:47;9.37;;;4.03;;
10465;SDS011;5280;42.600;23.556;2022-07-23T03:45:13;3.43;;;3.23;;
10465;SDS011;5280;42.600;23.556;2022-07-23T03:47:40;12.53;;;4.13;;
10465;SDS011;5280;42.600;23.556;2022-07-23T03:50:08;24.47;;;5.03;;
10465;SDS011;5280;42.600;23.556;2022-07-23T03:52:35;7.90;;;3.83;;
10465;SDS011;5280;42.600;23.556;2022-07-23T03:55:03;5.17;;;3.03;;
10465;SDS011;5280;42.600;23.556;2022-07-23T03:57:32;4.90;;;3.63;;
10465;SDS011;5280;42.600;23.556;2022-07-23T03:59:58;4.27;;;3.70;;
10465;SDS011;5280;42.600;23.556;2022-07-23T04:02:25;5.03;;;4.10;;
10465;SDS011;5280;42.600;23.556;2022-07-23T04:04:53;9.33;;;4.40;;
10465;SDS011;5280;42.600;23.556;2022-07-23T04:07:20;35.40;;;6.40;;
10465;SDS011;5280;42.600;23.556;2022-07-23T04:09:47;11.10;;;4.03;;
10465;SDS011;5280;42.600;23.556;2022-07-23T04:12:14;10.67;;;4.07;;
10465;SDS011;5280;42.600;23.556;2022-07-23T04:14:42;6.37;;;3.97;;
10465;SDS011;5280;42.600;23.556;2022-07-23T04:17:09;10.67;;;4.37;;
10465;SDS011;5280;42.600;23.556;2022-07-23T04:19:36;9.10;;;4.33;;
10465;SDS011;5280;42.600;23.556;2022-07-23T04:22:05;5.43;;;3.70;;
10465;SDS011;5280;42.600;23.556;2022-07-23T04:24:32;5.50;;;4.10;;
10465;SDS011;5280;42.600;23.556;2022-07-23T04:26:59;28.43;;;5.43;;
10465;SDS011;5280;42.600;23.556;2022-07-23T04:29:26;19.37;;;4.63;;
10465;SDS011;5280;42.600;23.556;2022-07-23T04:31:54;13.83;;;4.83;;
10465;SDS011;5280;42.600;23.556;2022-07-23T04:34:21;7.80;;;4.33;;
10465;SDS011;5280;42.600;23.556;2022-07-23T04:36:49;6.20;;;4.10;;
10465;SDS011;5280;42.600;23.556;2022-07-23T04:39:15;63.17;;;8.37;;
10465;SDS011;5280;42.600;23.556;2022-07-23T04:41:42;12.23;;;6.13;;
10465;SDS011;5280;42.600;23.556;2022-07-23T04:44:09;8.47;;;5.13;;
10465;SDS011;5280;42.600;23.556;2022-07-23T04:46:38;8.93;;;5.43;;
10465;SDS011;5280;42.600;23.556;2022-07-23T04:49:06;5.30;;;4.80;;
10465;SDS011;5280;42.600;23.556;2022-07-23T04:51:33;5.23;;;4.80;;
10465;SDS011;5280;42.600;23.556;2022-07-23T04:54:00;6.17;;;4.80;;
10465;SDS011;5280;42.600;23.556;2022-07-23T04:56:27;5.50;;;4.87;;
10465;SDS011;5280;42.600;23.556;2022-07-23T04:58:54;11.30;;;5.10;;
10465;SDS011;5280;42.600;23.556;2022-07-23T05:01:21;5.60;;;4.70;;
10465;SDS011;5280;42.600;23.556;2022-07-23T05:03:47;9.47;;;4.77;;
10465;SDS011;5280;42.600;23.556;2022-07-23T05:06:16;7.13;;;4.67;;
10465;SDS011;5280;42.600;23.556;2022-07-23T05:08:42;5.23;;;4.63;;
10465;SDS011;5280;42.600;23.556;2022-07-23T05:11:09;6.57;;;4.20;;
10465;SDS011;5280;42.600;23.556;2022-07-23T05:13:36;5.20;;;4.70;;
10465;SDS011;5280;42.600;23.556;2022-07-23T05:16:03;5.43;;;4.90;;
10465;SDS011;5280;42.600;23.556;2022-07-23T05:18:30;4.77;;;4.27;;
10465;SDS011;5280;42.600;23.556;2022-07-23T05:20:57;6.20;;;4.70;;
10465;SDS011;5280;42.600;23.556;2022-07-23T05:23:25;5.93;;;5.37;;
10465;SDS011;5280;42.600;23.556;2022-07-23T05:25:52;6.77;;;5.00;;
10465;SDS011;5280;42.600;23.556;2022-07-23T05:28:19;6.17;;;5.37;;
10465;SDS011;5280;42.600;23.556;2022-07-23T05:30:46;7.10;;;5.50;;
10465;SDS011;5280;42.600;23.556;2022-07-23T05:33:13;8.20;;;5.00;;
10465;SDS011;5280;42.600;23.556;2022-07-23T05:35:39;6.17;;;5.00;;
10465;SDS011;5280;42.600;23.556;2022-07-23T05:38:06;9.03;;;5.23;;
10465;SDS011;5280;42.600;23.556;2022-07-23T05:40:35;7.90;;;5.27;;
10465;SDS011;5280;42.600;23.556;2022-07-23T05:43:01;6.43;;;5.23;;
10465;SDS011;5280;42.600;23.556;2022-07-23T05:45:28;5.23;;;4.70;;
10465;SDS011;5280;42.600;23.556;2022-07-23T05:47:55;5.23;;;4.67;;
10465;SDS011;5280;42.600;23.556;2022-07-23T05:50:22;8.53;;;5.60;;
10465;SDS011;5280;42.600;23.556;2022-07-23T05:52:49;6.93;;;5.47;;
10465;SDS011;5280;42.600;23.556;2022-07-23T05:55:16;7.63;;;5.23;;
10465;SDS011;5280;42.600;23.556;2022-07-23T05:57:44;5.47;;;4.93;;
10465;SDS011;5280;42.600;23.556;2022-07-23T06:00:11;6.87;;;4.50;;
10465;SDS011;5280;42.600;23.556;2022-07-23T06:02:38;5.33;;;4.80;;
10465;SDS011;5280;42.600;23.556;2022-07-23T06:05:06;6.87;;;5.50;;
10465;SDS011;5280;42.600;23.556;2022-07-23T06:07:34;6.47;;;5.28;;
10465;SDS011;5280;42.600;23.556;2022-07-23T06:10:01;5.80;;;4.67;;
10465;SDS011;5280;42.600;23.556;2022-07-23T06:12:27;5.93;;;4.83;;
10465;SDS011;5280;42.600;23.556;2022-07-23T06:14:56;5.05;;;4.47;;
10465;SDS011;5280;42.600;23.556;2022-07-23T06:17:22;6.60;;;5.20;;
10465;SDS011;5280;42.600;23.556;2022-07-23T06:19:49;6.15;;;4.93;;
10465;SDS011;5280;42.600;23.556;2022-07-23T06:22:16;5.60;;;5.10;;
10465;SDS011;5280;42.600;23.556;2022-07-23T06:24:43;9.88;;;5.72;;
10465;SDS011;5280;42.600;23.556;2022-07-23T06:27:10;5.97;;;4.43;;
10465;SDS011;5280;42.600;23.556;2022-07-23T06:29:37;6.90;;;4.90;;
10465;SDS011;5280;42.600;23.556;2022-07-23T06:32:11;6.80;;;4.90;;
10465;SDS011;5280;42.600;23.556;2022-07-23T06:34:38;10.60;;;5.18;;
10465;SDS011;5280;42.600;23.556;2022-07-23T06:37:04;6.90;;;5.20;;
10465;SDS011;5280;42.600;23.556;2022-07-23T06:39:31;5.75;;;5.05;;
10465;SDS011;5280;42.600;23.556;2022-07-23T06:41:58;6.68;;;5.10;;
10465;SDS011;5280;42.600;23.556;2022-07-23T06:44:26;7.60;;;4.60;;
10465;SDS011;5280;42.600;23.556;2022-07-23T06:46:53;6.90;;;5.10;;
10465;SDS011;5280;42.600;23.556;2022-07-23T06:49:21;7.28;;;5.30;;
10465;SDS011;5280;42.600;23.556;2022-07-23T06:51:48;7.07;;;5.18;;
10465;SDS011;5280;42.600;23.556;2022-07-23T06:54:15;6.85;;;5.35;;
10465;SDS011;5280;42.600;23.556;2022-07-23T06:56:42;8.93;;;5.57;;
10465;SDS011;5280;42.600;23.556;2022-07-23T06:59:10;7.43;;;5.32;;
10465;SDS011;5280;42.600;23.556;2022-07-23T07:01:40;5.55;;;5.05;;
10465;SDS011;5280;42.600;23.556;2022-07-23T07:04:06;5.47;;;4.97;;
10465;SDS011;5280;42.600;23.556;2022-07-23T07:06:35;6.00;;;5.40;;
10465;SDS011;5280;42.600;23.556;2022-07-23T07:09:02;10.20;;;5.32;;
10465;SDS011;5280;42.600;23.556;2022-07-23T07:11:29;6.85;;;5.00;;
10465;SDS011;5280;42.600;23.556;2022-07-23T07:13:56;5.90;;;5.28;;
10465;SDS011;5280;42.600;23.556;2022-07-23T07:16:22;7.32;;;5.10;;
10465;SDS011;5280;42.600;23.556;2022-07-23T07:18:49;5.30;;;4.80;;
10465;SDS011;5280;42.600;23.556;2022-07-23T07:21:16;5.72;;;5.05;;
10465;SDS011;5280;42.600;23.556;2022-07-23T07:23:44;6.85;;;5.40;;
10465;SDS011;5280;42.600;23.556;2022-07-23T07:26:11;5.53;;;5.00;;
10465;SDS011;5280;42.600;23.556;2022-07-23T07:28:38;6.40;;;5.38;;
10465;SDS011;5280;42.600;23.556;2022-07-23T07:31:05;8.20;;;5.20;;
10465;SDS011;5280;42.600;23.556;2022-07-23T07:33:32;6.93;;;5.50;;
10465;SDS011;5280;42.600;23.556;2022-07-23T07:35:58;6.25;;;5.07;;
10465;SDS011;5280;42.600;23.556;2022-07-23T07:38:26;6.60;;;5.47;;
10465;SDS011;5280;42.600;23.556;2022-07-23T07:40:54;8.20;;;5.50;;
10465;SDS011;5280;42.600;23.556;2022-07-23T07:43:21;5.93;;;5.32;;
10465;SDS011;5280;42.600;23.556;2022-07-23T07:45:48;13.45;;;5.60;;
10465;SDS011;5280;42.600;23.556;2022-07-23T07:48:15;6.13;;;5.53;;
10465;SDS011;5280;42.600;23.556;2022-07-23T07:50:41;7.03;;;5.00;;
10465;SDS011;5280;42.600;23.556;2022-07-23T07:53:08;6.72;;;5.18;;
10465;SDS011;5280;42.600;23.556;2022-07-23T07:55:35;5.95;;;5.38;;
10465;SDS011;5280;42.600;23.556;2022-07-23T07:58:03;5.43;;;4.80;;
10465;SDS011;5280;42.600;23.556;2022-07-23T08:00:31;6.70;;;5.05;;
10465;SDS011;5280;42.600;23.556;2022-07-23T08:02:58;5.57;;;5.03;;
10465;SDS011;5280;42.600;23.556;2022-07-23T08:05:25;6.78;;;5.03;;
10465;SDS011;5280;42.600;23.556;2022-07-23T08:07:54;8.55;;;5.43;;
10465;SDS011;5280;42.600;23.556;2022-07-23T08:10:21;9.73;;;5.10;;
10465;SDS011;5280;42.600;23.556;2022-07-23T08:12:49;5.38;;;4.82;;
10465;SDS011;5280;42.600;23.556;2022-07-23T08:15:20;14.25;;;5.55;;
10465;SDS011;5280;42.600;23.556;2022-07-23T08:17:48;10.80;;;5.20;;
10465;SDS011;5280;42.600;23.556;2022-07-23T08:20:16;6.63;;;5.22;;
10465;SDS011;5280;42.600;23.556;2022-07-23T08:22:46;6.32;;;4.82;;
10465;SDS011;5280;42.600;23.556;2022-07-23T08:25:19;9.48;;;5.00;;
10465;SDS011;5280;42.600;23.556;2022-07-23T08:27:51;7.90;;;4.95;;
10465;SDS011;5280;42.600;23.556;2022-07-23T08:30:20;6.80;;;4.50;;
10465;SDS011;5280;42.600;23.556;2022-07-23T08:32:52;5.20;;;4.40;;
10465;SDS011;5280;42.600;23.556;2022-07-23T08:35:26;5.38;;;4.43;;
10465;SDS011;5280;42.600;23.556;2022-07-23T08:37:54;7.72;;;4.85;;
10465;SDS011;5280;42.600;23.556;2022-07-23T08:40:21;5.50;;;4.45;;
10465;SDS011;5280;42.600;23.556;2022-07-23T08:42:53;5.07;;;4.57;;
10465;SDS011;5280;42.600;23.556;2022-07-23T08:45:22;8.10;;;5.05;;
10465;SDS011;5280;42.600;23.556;2022-07-23T08:47:50;5.70;;;4.50;;
10465;SDS011;5280;42.600;23.556;2022-07-23T08:50:18;7.93;;;5.18;;
10465;SDS011;5280;42.600;23.556;2022-07-23T08:52:46;6.70;;;4.55;;
10465;SDS011;5280;42.600;23.556;2022-07-23T08:55:15;7.15;;;4.78;;
10465;SDS011;5280;42.600;23.556;2022-07-23T08:57:43;6.55;;;5.00;;
10465;SDS011;5280;42.600;23.556;2022-07-23T09:00:11;9.75;;;4.63;;
10465;SDS011;5280;42.600;23.556;2022-07-23T09:02:42;5.47;;;4.97;;
10465;SDS011;5280;42.600;23.556;2022-07-23T09:05:13;5.45;;;4.78;;
10465;SDS011;5280;42.600;23.556;2022-07-23T09:10:30;6.97;;;4.55;;
10465;SDS011;5280;42.600;23.556;2022-07-23T09:13:30;7.97;;;4.20;;
10465;SDS011;5280;42.600;23.556;2022-07-23T09:16:03;5.25;;;4.13;;
10465;SDS011;5280;42.600;23.556;2022-07-23T09:18:37;4.70;;;4.30;;
10465;SDS011;5280;42.600;23.556;2022-07-23T09:21:13;5.80;;;4.88;;
10465;SDS011;5280;42.600;23.556;2022-07-23T09:23:53;8.10;;;4.78;;
10465;SDS011;5280;42.600;23.556;2022-07-23T09:26:23;6.90;;;4.65;;
10465;SDS011;5280;42.600;23.556;2022-07-23T09:28:56;16.77;;;5.22;;
10465;SDS011;5280;42.600;23.556;2022-07-23T09:31:24;9.48;;;4.90;;
10465;SDS011;5280;42.600;23.556;2022-07-23T09:34:06;5.45;;;4.82;;
10465;SDS011;5280;42.600;23.556;2022-07-23T09:36:34;5.53;;;4.60;;
10465;SDS011;5280;42.600;23.556;2022-07-23T09:39:01;9.43;;;4.80;;
10465;SDS011;5280;42.600;23.556;2022-07-23T09:41:33;5.00;;;4.47;;
10465;SDS011;5280;42.600;23.556;2022-07-23T09:44:11;5.20;;;4.68;;
10465;SDS011;5280;42.600;23.556;2022-07-23T09:46:41;7.25;;;4.22;;
10465;SDS011;5280;42.600;23.556;2022-07-23T09:49:17;6.40;;;4.93;;
10465;SDS011;5280;42.600;23.556;2022-07-23T09:51:50;5.50;;;5.00;;
10465;SDS011;5280;42.600;23.556;2022-07-23T09:54:26;9.13;;;4.95;;
10465;SDS011;5280;42.600;23.556;2022-07-23T09:56:58;8.25;;;4.50;;
10465;SDS011;5280;42.600;23.556;2022-07-23T09:59:27;5.35;;;4.43;;
10465;SDS011;5280;42.600;23.556;2022-07-23T10:01:56;5.68;;;4.50;;
10465;SDS011;5280;42.600;23.556;2022-07-23T10:04:26;6.25;;;4.50;;
10465;SDS011;5280;42.600;23.556;2022-07-23T10:06:54;5.15;;;4.30;;
10465;SDS011;5280;42.600;23.556;2022-07-23T10:09:23;8.45;;;4.32;;
10465;SDS011;5280;42.600;23.556;2022-07-23T10:11:52;9.63;;;4.63;;
10465;SDS011;5280;42.600;23.556;2022-07-23T10:14:22;8.88;;;4.85;;
10465;SDS011;5280;42.600;23.556;2022-07-23T10:16:50;6.65;;;4.28;;
10465;SDS011;5280;42.600;23.556;2022-07-23T10:19:17;6.68;;;4.75;;
10465;SDS011;5280;42.600;23.556;2022-07-23T10:21:46;5.95;;;4.32;;
10465;SDS011;5280;42.600;23.556;2022-07-23T10:24:18;5.30;;;4.53;;
10465;SDS011;5280;42.600;23.556;2022-07-23T10:26:58;7.28;;;4.50;;
10465;SDS011;5280;42.600;23.556;2022-07-23T10:29:37;7.95;;;4.88;;
10465;SDS011;5280;42.600;23.556;2022-07-23T10:32:14;5.40;;;4.28;;
10465;SDS011;5280;42.600;23.556;2022-07-23T10:34:49;6.57;;;4.53;;
10465;SDS011;5280;42.600;23.556;2022-07-23T10:37:23;5.03;;;4.53;;
10465;SDS011;5280;42.600;23.556;2022-07-23T10:40:08;5.45;;;4.53;;
10465;SDS011;5280;42.600;23.556;2022-07-23T10:42:36;4.60;;;4.13;;
10465;SDS011;5280;42.600;23.556;2022-07-23T10:47:49;5.20;;;4.70;;
10465;SDS011;5280;42.600;23.556;2022-07-23T10:50:21;7.45;;;5.07;;
10465;SDS011;5280;42.600;23.556;2022-07-23T10:55:39;8.13;;;4.65;;
10465;SDS011;5280;42.600;23.556;2022-07-23T10:58:07;9.88;;;5.20;;
10465;SDS011;5280;42.600;23.556;2022-07-23T11:00:35;8.63;;;4.90;;
10465;SDS011;5280;42.600;23.556;2022-07-23T11:03:05;7.50;;;4.55;;
10465;SDS011;5280;42.600;23.556;2022-07-23T11:05:52;8.27;;;4.80;;
10465;SDS011;5280;42.600;23.556;2022-07-23T11:08:20;9.32;;;5.30;;
10465;SDS011;5280;42.600;23.556;2022-07-23T11:10:49;10.93;;;5.28;;
10465;SDS011;5280;42.600;23.556;2022-07-23T11:16:16;7.40;;;4.45;;
10465;SDS011;5280;42.600;23.556;2022-07-23T11:18:59;10.75;;;4.72;;
10465;SDS011;5280;42.600;23.556;2022-07-23T11:21:44;8.30;;;4.78;;
10465;SDS011;5280;42.600;23.556;2022-07-23T11:24:17;8.57;;;4.88;;
10465;SDS011;5280;42.600;23.556;2022-07-23T11:26:55;7.88;;;5.15;;
10465;SDS011;5280;42.600;23.556;2022-07-23T11:29:41;7.22;;;4.97;;
10465;SDS011;5280;42.600;23.556;2022-07-23T11:32:19;7.63;;;4.82;;
10465;SDS011;5280;42.600;23.556;2022-07-23T11:35:23;7.32;;;4.65;;
10465;SDS011;5280;42.600;23.556;2022-07-23T11:37:53;11.68;;;4.70;;
10465;SDS011;5280;42.600;23.556;2022-07-23T11:40:30;6.90;;;4.82;;
10465;SDS011;5280;42.600;23.556;2022-07-23T11:42:58;7.85;;;4.40;;
10465;SDS011;5280;42.600;23.556;2022-07-23T11:45:29;9.55;;;4.68;;
10465;SDS011;5280;42.600;23.556;2022-07-23T11:47:57;12.52;;;5.15;;
10465;SDS011;5280;42.600;23.556;2022-07-23T11:50:24;13.25;;;5.10;;
10465;SDS011;5280;42.600;23.556;2022-07-23T11:52:52;26.23;;;6.53;;
10465;SDS011;5280;42.600;23.556;2022-07-23T11:55:19;13.30;;;5.07;;
10465;SDS011;5280;42.600;23.556;2022-07-23T11:57:47;7.75;;;4.20;;
10465;SDS011;5280;42.600;23.556;2022-07-23T12:00:17;12.50;;;4.93;;
10465;SDS011;5280;42.600;23.556;2022-07-23T12:02:47;15.73;;;4.30;;
10465;SDS011;5280;42.600;23.556;2022-07-23T12:05:15;10.93;;;4.78;;
10465;SDS011;5280;42.600;23.556;2022-07-23T12:07:43;10.95;;;4.75;;
10465;SDS011;5280;42.600;23.556;2022-07-23T12:10:15;10.60;;;5.15;;
10465;SDS011;5280;42.600;23.556;2022-07-23T12:12:44;7.80;;;4.45;;
10465;SDS011;5280;42.600;23.556;2022-07-23T12:15:17;7.53;;;4.75;;
10465;SDS011;5280;42.600;23.556;2022-07-23T12:17:47;8.02;;;4.88;;
10465;SDS011;5280;42.600;23.556;2022-07-23T12:20:15;11.80;;;4.47;;
10465;SDS011;5280;42.600;23.556;2022-07-23T12:22:43;10.57;;;5.05;;
10465;SDS011;5280;42.600;23.556;2022-07-23T12:25:12;8.95;;;5.00;;
10465;SDS011;5280;42.600;23.556;2022-07-23T12:27:41;11.20;;;4.93;;
10465;SDS011;5280;42.600;23.556;2022-07-23T12:30:17;11.02;;;5.18;;
10465;SDS011;5280;42.600;23.556;2022-07-23T12:32:46;12.32;;;5.63;;
10465;SDS011;5280;42.600;23.556;2022-07-23T12:35:14;12.70;;;5.00;;
10465;SDS011;5280;42.600;23.556;2022-07-23T12:37:43;7.63;;;4.60;;
10465;SDS011;5280;42.600;23.556;2022-07-23T12:40:20;12.25;;;5.40;;
10465;SDS011;5280;42.600;23.556;2022-07-23T12:42:51;7.20;;;4.50;;
10465;SDS011;5280;42.600;23.556;2022-07-23T12:45:20;14.80;;;5.20;;
10465;SDS011;5280;42.600;23.556;2022-07-23T12:50:37;11.63;;;5.05;;
10465;SDS011;5280;42.600;23.556;2022-07-23T12:53:06;16.33;;;5.10;;
10465;SDS011;5280;42.600;23.556;2022-07-23T12:55:35;9.85;;;5.10;;
10465;SDS011;5280;42.600;23.556;2022-07-23T12:58:03;10.05;;;4.90;;
10465;SDS011;5280;42.600;23.556;2022-07-23T13:00:34;14.63;;;5.57;;
10465;SDS011;5280;42.600;23.556;2022-07-23T13:03:30;13.55;;;4.93;;
10465;SDS011;5280;42.600;23.556;2022-07-23T13:06:00;17.92;;;4.90;;
10465;SDS011;5280;42.600;23.556;2022-07-23T13:08:28;14.70;;;4.70;;
10465;SDS011;5280;42.600;23.556;2022-07-23T13:10:56;9.10;;;4.50;;
10465;SDS011;5280;42.600;23.556;2022-07-23T13:13:25;8.32;;;4.60;;
10465;SDS011;5280;42.600;23.556;2022-07-23T13:15:54;8.75;;;4.75;;
10465;SDS011;5280;42.600;23.556;2022-07-23T13:18:22;11.43;;;4.53;;
10465;SDS011;5280;42.600;23.556;2022-07-23T13:20:49;12.65;;;4.05;;
10465;SDS011;5280;42.600;23.556;2022-07-23T13:23:16;9.27;;;4.40;;
10465;SDS011;5280;42.600;23.556;2022-07-23T13:25:44;10.48;;;4.30;;
10465;SDS011;5280;42.600;23.556;2022-07-23T13:28:11;13.52;;;5.30;;
10465;SDS011;5280;42.600;23.556;2022-07-23T13:30:38;8.63;;;4.43;;
10465;SDS011;5280;42.600;23.556;2022-07-23T13:33:06;9.15;;;4.30;;
10465;SDS011;5280;42.600;23.556;2022-07-23T13:35:34;7.43;;;4.35;;
10465;SDS011;5280;42.600;23.556;2022-07-23T13:38:02;14.15;;;5.78;;
10465;SDS011;5280;42.600;23.556;2022-07-23T13:40:29;12.35;;;4.75;;
10465;SDS011;5280;42.600;23.556;2022-07-23T13:42:57;9.38;;;5.22;;
10465;SDS011;5280;42.600;23.556;2022-07-23T13:45:23;10.50;;;4.90;;
10465;SDS011;5280;42.600;23.556;2022-07-23T13:47:50;9.75;;;4.90;;
10465;SDS011;5280;42.600;23.556;2022-07-23T13:50:18;13.68;;;5.32;;
10465;SDS011;5280;42.600;23.556;2022-07-23T13:52:45;12.63;;;5.15;;
10465;SDS011;5280;42.600;23.556;2022-07-23T13:55:12;9.77;;;5.25;;
10465;SDS011;5280;42.600;23.556;2022-07-23T13:57:43;7.53;;;5.15;;
10465;SDS011;5280;42.600;23.556;2022-07-23T14:00:10;10.80;;;5.13;;
10465;SDS011;5280;42.600;23.556;2022-07-23T14:02:38;13.00;;;5.50;;
10465;SDS011;5280;42.600;23.556;2022-07-23T14:05:07;10.95;;;5.32;;
10465;SDS011;5280;42.600;23.556;2022-07-23T14:07:37;13.10;;;5.68;;
10465;SDS011;5280;42.600;23.556;2022-07-23T14:10:06;13.40;;;4.88;;
10465;SDS011;5280;42.600;23.556;2022-07-23T14:12:34;8.75;;;5.10;;
10465;SDS011;5280;42.600;23.556;2022-07-23T14:15:01;8.90;;;4.78;;
10465;SDS011;5280;42.600;23.556;2022-07-23T14:17:28;9.45;;;5.22;;
10465;SDS011;5280;42.600;23.556;2022-07-23T14:19:55;8.77;;;4.53;;
10465;SDS011;5280;42.600;23.556;2022-07-23T14:22:22;10.57;;;4.78;;
10465;SDS011;5280;42.600;23.556;2022-07-23T14:24:50;12.02;;;4.82;;
10465;SDS011;5280;42.600;23.556;2022-07-23T14:27:17;14.27;;;5.50;;
10465;SDS011;5280;42.600;23.556;2022-07-23T14:29:44;12.57;;;5.22;;
10465;SDS011;5280;42.600;23.556;2022-07-23T14:32:11;6.50;;;4.85;;
10465;SDS011;5280;42.600;23.556;2022-07-23T14:34:38;11.25;;;4.97;;
10465;SDS011;5280;42.600;23.556;2022-07-23T14:37:05;10.68;;;5.00;;
10465;SDS011;5280;42.600;23.556;2022-07-23T14:39:32;11.30;;;5.28;;
10465;SDS011;5280;42.600;23.556;2022-07-23T14:42:00;9.93;;;5.53;;
10465;SDS011;5280;42.600;23.556;2022-07-23T14:44:27;9.30;;;4.88;;
10465;SDS011;5280;42.600;23.556;2022-07-23T14:46:54;7.32;;;4.65;;
10465;SDS011;5280;42.600;23.556;2022-07-23T14:49:21;9.27;;;5.05;;
10465;SDS011;5280;42.600;23.556;2022-07-23T14:51:48;16.45;;;5.57;;
10465;SDS011;5280;42.600;23.556;2022-07-23T14:54:15;10.77;;;5.15;;
10465;SDS011;5280;42.600;23.556;2022-07-23T14:56:42;7.25;;;4.68;;
10465;SDS011;5280;42.600;23.556;2022-07-23T14:59:10;14.07;;;5.10;;
10465;SDS011;5280;42.600;23.556;2022-07-23T15:01:39;11.07;;;5.00;;
10465;SDS011;5280;42.600;23.556;2022-07-23T15:04:06;10.40;;;5.45;;
10465;SDS011;5280;42.600;23.556;2022-07-23T15:06:33;8.98;;;4.90;;
10465;SDS011;5280;42.600;23.556;2022-07-23T15:09:00;10.13;;;5.13;;